TIST/STT METAR and TAF weather

Enter ICAO airport designator
Station Type Date Time Source
TIST METAR 2019/02/17 08:07 UTC NOAA

TIST 170807Z AUTO 08006KT 10SM SCT016 24/23 A3002 RMK AO2 T02390228 $


Station Type Date Time Source
TIST Decoded METAR 2019/02/17 08:07 UTC NOAA

Charlotte Amalie St. Thomas, Cyril E. King Airport, Virgin Islands (TIST) 18-20N 064-59W
Feb 17, 2019 - 03:07 AM EST / 2019.02.17 0807 UTC
Wind: from the E (080 degrees) at 7 MPH (6 KT):0
Visibility: 10 mile(s):0
Sky conditions: partly cloudy
Temperature: 75.0 F (23.9 C)
Dew Point: 73.0 F (22.8 C)
Relative Humidity: 93%
Pressure (altimeter): 30.02 in. Hg (1016 hPa)
ob: TIST 170807Z AUTO 08006KT 10SM SCT016 24/23 A3002 RMK AO2 T02390228
cycle: 8

Station Type Date Time Source
TIST TAF 2019/02/17 06:52 UTC NOAA

TAF TIST 170542Z 1706/1806 12007KT P6SM VCSH FEW025 SCT050
FM171400 13013KT P6SM FEW025 FEW035
FM172200 11006KT P6SM SCT030


Example: see airport list